Time;durP1;ratioP1;P1;durP2;ratioP2;P2;SDS_P1;SDS_P2;PMS_P1;PMS_P2;Temp;Humidity;BMP_temperature;BMP_pressure;BME280_temperature;BME280_humidity;BME280_pressure;Samples;Min_cycle;Max_cycle;Signal;HPM_P1;HPM_P2
2021/11/25 00:01:50;;;;;;;2.63;1.83;;;;;;;2.48;77.06;99230.38;4992269;28;20145;-79
2021/11/25 00:04:17;;;;;;;2.17;1.63;;;;;;;2.66;77.05;99262.31;5000136;28;20099;-77
2021/11/25 00:06:43;;;;;;;2.30;2.00;;;;;;;2.30;77.14;99209.56;4998727;28;20041;-79
2021/11/25 00:09:09;;;;;;;1.80;1.45;;;;;;;2.66;77.26;99268.31;4999135;28;20049;-80
2021/11/25 00:11:35;;;;;;;3.83;1.85;;;;;;;2.75;76.87;99284.72;4984388;28;20037;-80
2021/11/25 00:14:02;;;;;;;2.42;1.55;;;;;;;2.65;76.91;99268.31;5017907;28;20077;-79
2021/11/25 00:16:28;;;;;;;2.03;1.50;;;;;;;2.79;76.83;99284.78;5000122;28;20534;-79
2021/11/25 00:18:54;;;;;;;3.97;2.03;;;;;;;2.69;76.94;99277.78;4999920;28;20052;-78
2021/11/25 00:21:22;;;;;;;1.52;1.33;;;;;;;2.80;77.07;99289.09;4999736;28;20599;-80
2021/11/25 00:23:48;;;;;;;2.88;1.50;;;;;;;2.78;76.65;99292.47;5018462;28;20462;-78
2021/11/25 00:26:16;;;;;;;3.03;1.40;;;;;;;2.86;76.99;99286.63;5020540;28;20047;-78
2021/11/25 00:28:42;;;;;;;2.58;1.50;;;;;;;2.77;76.85;99265.03;5003776;28;20045;-80
2021/11/25 00:31:08;;;;;;;2.58;1.20;;;;;;;2.90;77.31;99289.19;5019624;28;20068;-79
2021/11/25 00:33:34;;;;;;;2.65;1.30;;;;;;;2.79;77.05;99268.50;5002058;28;20065;-78
2021/11/25 00:36:00;;;;;;;1.92;1.42;;;;;;;2.80;76.30;99283.06;5015787;28;20049;-79
2021/11/25 00:38:26;;;;;;;4.78;1.30;;;;;;;2.85;76.67;99302.00;5015273;28;20112;-76
2021/11/25 00:40:52;;;;;;;2.10;1.25;;;;;;;2.78;76.95;99303.63;4981891;28;20136;-77
2021/11/25 00:43:18;;;;;;;1.70;1.10;;;;;;;2.74;76.65;99281.28;4981615;28;20600;-78
2021/11/25 00:45:44;;;;;;;1.85;1.15;;;;;;;2.93;76.97;99309.81;4991087;28;20048;-77
2021/11/25 00:48:10;;;;;;;1.67;1.33;;;;;;;2.67;76.77;99252.06;4998581;28;20083;-79
2021/11/25 00:50:36;;;;;;;2.75;1.38;;;;;;;2.95;77.04;99293.59;5000344;28;20091;-77
2021/11/25 00:53:02;;;;;;;2.00;1.13;;;;;;;3.07;76.60;99313.47;4983113;28;20522;-78
2021/11/25 00:55:28;;;;;;;1.52;1.30;;;;;;;3.04;76.63;99318.56;4985927;28;20083;-78
2021/11/25 00:57:54;;;;;;;1.17;0.90;;;;;;;2.97;76.54;99311.59;5017453;28;20042;-77
2021/11/25 01:00:22;;;;;;;1.40;1.10;;;;;;;2.98;76.20;99319.31;4999180;28;20045;-78
2021/11/25 01:02:49;;;;;;;2.38;1.23;;;;;;;3.06;76.33;99328.84;5017544;28;20038;-79
2021/11/25 01:05:16;;;;;;;1.63;1.20;;;;;;;3.04;76.63;99338.25;4982244;28;20498;-78
2021/11/25 01:07:47;;;;;;;2.33;1.40;;;;;;;3.03;76.50;99334.81;5009458;28;20044;-79
2021/11/25 01:10:17;;;;;;;1.30;1.10;;;;;;;3.07;76.54;99321.16;4999301;28;20447;-79
2021/11/25 01:12:44;;;;;;;1.67;1.02;;;;;;;3.08;76.16;99332.31;5014607;28;20053;-78
2021/11/25 01:15:14;;;;;;;1.42;1.10;;;;;;;2.90;76.22;99314.91;5016642;28;20048;-78
2021/11/25 01:17:40;;;;;;;0.90;0.82;;;;;;;3.03;76.01;99336.50;4981523;28;20042;-76
2021/11/25 01:20:14;;;;;;;1.17;1.08;;;;;;;3.01;75.73;99333.94;5001853;28;20671;-77
2021/11/25 01:22:40;;;;;;;1.67;1.20;;;;;;;2.95;76.01;99336.41;5016855;28;20033;-77
2021/11/25 01:25:07;;;;;;;1.33;1.05;;;;;;;2.92;75.80;99329.53;5002216;28;20649;-78
2021/11/25 01:27:32;;;;;;;2.47;1.10;;;;;;;2.53;76.16;99276.69;5019215;28;20046;-79
2021/11/25 01:30:00;;;;;;;1.58;1.00;;;;;;;2.96;76.35;99343.28;5021097;28;20049;-80
2021/11/25 01:32:25;;;;;;;1.67;1.13;;;;;;;3.01;76.07;99365.63;5019512;28;20063;-77
2021/11/25 01:34:51;;;;;;;2.33;2.00;;;;;;;3.04;75.96;99362.25;4983613;28;20038;-77
2021/11/25 01:37:17;;;;;;;2.38;1.67;;;;;;;2.94;76.01;99345.84;5020138;28;20048;-78
2021/11/25 01:39:43;;;;;;;2.17;1.20;;;;;;;2.96;75.68;99354.44;5001221;28;20510;-76
2021/11/25 01:42:09;;;;;;;1.65;1.10;;;;;;;2.95;75.67;99365.56;5001369;28;20045;-78
2021/11/25 01:44:35;;;;;;;5.97;1.20;;;;;;;3.03;75.38;99378.53;4982837;28;20139;-79
2021/11/25 01:47:03;;;;;;;2.75;0.93;;;;;;;3.03;75.79;99369.94;4981402;28;20039;-77
2021/11/25 01:49:29;;;;;;;1.92;1.20;;;;;;;2.80;75.17;99332.78;4983014;28;20131;-78
2021/11/25 01:51:55;;;;;;;1.52;0.68;;;;;;;3.00;75.13;99376.75;4967252;28;20076;-78
2021/11/25 01:54:21;;;;;;;0.85;0.50;;;;;;;2.85;75.26;99362.00;4982834;28;20050;-77
2021/11/25 01:56:47;;;;;;;1.35;0.70;;;;;;;2.89;75.34;99365.47;4982709;28;20057;-77
2021/11/25 01:59:13;;;;;;;1.27;0.60;;;;;;;3.08;75.06;99387.19;4965837;28;20128;-79
2021/11/25 02:01:39;;;;;;;0.75;0.60;;;;;;;3.11;75.02;99396.63;4986347;28;21611;-77
2021/11/25 02:04:06;;;;;;;0.70;0.50;;;;;;;3.00;74.69;99381.88;4990000;28;20116;-79
2021/11/25 02:06:32;;;;;;;1.58;0.70;;;;;;;3.04;74.82;99387.09;4983772;28;20407;-79
2021/11/25 02:09:00;;;;;;;2.80;1.27;;;;;;;2.97;74.42;99369.03;4950715;28;20042;-78
2021/11/25 02:11:28;;;;;;;1.83;0.60;;;;;;;2.90;74.40;99356.03;4983289;28;20046;-79
2021/11/25 02:13:54;;;;;;;1.08;0.88;;;;;;;3.19;74.48;99407.91;4985994;28;20133;-77
2021/11/25 02:16:20;;;;;;;0.73;0.70;;;;;;;3.03;74.03;99387.94;4988705;28;20048;-78
2021/11/25 02:18:46;;;;;;;0.90;0.70;;;;;;;3.07;74.60;99374.28;4983524;28;20110;-79
2021/11/25 02:21:12;;;;;;;1.20;0.90;;;;;;;3.22;74.12;99397.63;4985465;28;20081;-78
2021/11/25 02:23:38;;;;;;;2.15;0.70;;;;;;;3.16;74.39;99390.72;4981623;28;20100;-79
2021/11/25 02:26:04;;;;;;;1.67;0.70;;;;;;;3.30;73.92;99408.91;4973605;28;20061;-79
2021/11/25 02:28:34;;;;;;;3.83;1.10;;;;;;;3.34;74.04;99406.38;4984894;28;20042;-78
2021/11/25 02:31:01;;;;;;;1.83;0.90;;;;;;;3.37;73.39;99414.16;4983775;28;20042;-78
2021/11/25 02:33:27;;;;;;;1.77;0.75;;;;;;;3.31;74.02;99418.34;4983068;28;20094;-79
2021/11/25 02:35:54;;;;;;;1.75;0.85;;;;;;;3.30;73.83;99398.63;4967441;28;20045;-78
2021/11/25 02:38:20;;;;;;;3.30;1.02;;;;;;;3.40;73.67;99412.47;4964228;28;20070;-78
2021/11/25 02:40:49;;;;;;;1.08;0.93;;;;;;;3.31;73.66;99390.06;4983519;28;20053;-78
2021/11/25 02:43:26;;;;;;;2.03;0.93;;;;;;;3.24;73.06;99392.53;4998568;28;20119;-78
2021/11/25 02:45:55;;;;;;;1.88;1.13;;;;;;;3.45;73.55;99434.00;5000124;28;21169;-79
2021/11/25 02:48:29;;;;;;;1.65;0.98;;;;;;;3.44;72.73;99432.25;5016094;28;20037;-77
2021/11/25 02:50:57;;;;;;;0.85;0.73;;;;;;;3.40;73.20;99445.91;4988255;28;20037;-76
2021/11/25 02:53:26;;;;;;;1.30;0.82;;;;;;;3.12;73.08;99406.06;5000845;28;20056;-78
2021/11/25 02:55:57;;;;;;;1.20;0.90;;;;;;;3.35;73.23;99444.13;4990121;28;20052;-78
2021/11/25 02:58:24;;;;;;;1.52;1.02;;;;;;;3.19;72.69;99431.06;5017681;28;20064;-79
2021/11/25 03:00:51;;;;;;;1.00;0.90;;;;;;;3.03;72.66;99423.91;5001462;28;20064;-78
2021/11/25 03:03:17;;;;;;;1.60;0.95;;;;;;;3.13;72.79;99446.38;4983580;28;20054;-79
2021/11/25 03:05:46;;;;;;;1.38;0.90;;;;;;;3.07;72.95;99428.28;5018614;28;20051;-80
2021/11/25 03:08:13;;;;;;;0.80;0.80;;;;;;;3.15;73.35;99445.53;5018110;28;20049;-80
2021/11/25 03:10:48;;;;;;;1.73;0.75;;;;;;;3.28;72.76;99441.47;5002251;28;21052;-82
2021/11/25 03:13:17;;;;;;;2.00;1.05;;;;;;;3.37;72.59;99445.88;5018969;28;20053;-79
2021/11/25 03:15:43;;;;;;;1.15;0.75;;;;;;;3.31;72.32;99428.66;5002409;28;20042;-81
2021/11/25 03:18:10;;;;;;;3.08;1.08;;;;;;;3.43;72.51;99447.66;5002903;28;20179;-80
2021/11/25 03:20:38;;;;;;;1.20;0.70;;;;;;;3.43;72.03;99448.53;5020946;28;20128;-80
2021/11/25 03:23:06;;;;;;;1.75;0.90;;;;;;;3.51;72.60;99451.22;5020524;28;20045;-77
2021/11/25 03:25:33;;;;;;;2.97;1.17;;;;;;;3.45;72.10;99427.97;5023797;28;20069;-77
2021/11/25 03:28:00;;;;;;;1.58;1.15;;;;;;;3.60;72.04;99447.91;5002438;28;20050;-80
2021/11/25 03:30:25;;;;;;;1.60;1.50;;;;;;;3.56;72.03;99444.44;5027979;28;20435;-78
2021/11/25 03:32:51;;;;;;;3.53;1.70;;;;;;;3.46;71.71;99429.69;5001024;28;20044;-79
2021/11/25 03:35:17;;;;;;;2.38;1.42;;;;;;;3.54;71.43;99442.66;5019848;28;20514;-80
2021/11/25 03:37:44;;;;;;;2.30;1.20;;;;;;;3.51;71.30;99447.78;4996088;28;20037;-78
2021/11/25 03:40:10;;;;;;;1.77;0.93;;;;;;;3.43;71.03;99434.78;5006650;28;20517;-80
2021/11/25 03:42:37;;;;;;;2.30;1.17;;;;;;;3.39;71.14;99435.63;5007922;28;20076;-83
2021/11/25 03:45:05;;;;;;;1.75;1.00;;;;;;;3.54;71.03;99463.25;5010698;28;20143;-79
2021/11/25 03:47:31;;;;;;;1.98;1.13;;;;;;;3.59;71.62;99462.50;5029650;28;20144;-79
2021/11/25 03:49:57;;;;;;;1.90;1.42;;;;;;;3.66;70.96;99472.84;5022705;28;20080;-80
2021/11/25 03:52:23;;;;;;;1.40;1.30;;;;;;;3.57;71.44;99448.75;4987888;28;20542;-81
2021/11/25 03:54:54;;;;;;;2.30;1.27;;;;;;;3.74;71.19;99460.97;4987738;28;20041;-78
2021/11/25 03:57:21;;;;;;;1.73;1.00;;;;;;;3.68;71.05;99476.31;4998812;28;20515;-76
2021/11/25 03:59:49;;;;;;;1.75;1.10;;;;;;;3.60;71.23;99465.91;4986406;28;20053;-77
2021/11/25 04:02:15;;;;;;;2.17;1.20;;;;;;;3.30;71.14;99415.78;4999960;28;20219;-76
2021/11/25 04:04:41;;;;;;;1.88;1.00;;;;;;;3.74;70.71;99491.84;5016713;28;20506;-76
2021/11/25 04:07:06;;;;;;;2.72;1.85;;;;;;;3.65;70.94;99481.41;5017465;28;20500;-79
2021/11/25 04:09:32;;;;;;;1.52;1.20;;;;;;;3.63;70.78;99476.25;5015506;28;20049;-76
2021/11/25 04:11:58;;;;;;;1.15;1.05;;;;;;;3.73;70.78;99500.41;4985224;28;20109;-78
2021/11/25 04:14:24;;;;;;;2.17;1.00;;;;;;;3.61;70.55;99491.69;4978173;28;20042;-78
2021/11/25 04:16:50;;;;;;;1.50;1.10;;;;;;;3.64;70.36;99510.59;5002203;28;20065;-77
2021/11/25 04:19:16;;;;;;;1.55;1.10;;;;;;;3.64;70.75;99500.31;5036301;28;20406;-76
2021/11/25 04:21:42;;;;;;;1.38;0.98;;;;;;;3.25;70.59;99446.56;4984418;28;20045;-80
2021/11/25 04:24:08;;;;;;;3.15;1.10;;;;;;;3.47;70.14;99486.34;5018259;28;20503;-78
2021/11/25 04:26:34;;;;;;;1.92;1.10;;;;;;;3.57;70.74;99500.19;5002078;28;20038;-80
2021/11/25 04:29:01;;;;;;;1.38;1.10;;;;;;;3.36;69.88;99464.72;4984847;28;20046;-78
2021/11/25 04:36:55;;;;;;;1.83;1.08;;;;;;;3.43;70.23;99507.72;5016523;28;20037;-82
2021/11/25 04:39:21;;;;;;;1.25;0.93;;;;;;;3.47;69.59;99514.63;4992994;28;20053;-80
2021/11/25 04:41:47;;;;;;;1.75;0.77;;;;;;;3.17;69.94;99473.88;4992171;28;20140;-82
2021/11/25 04:44:16;;;;;;;1.67;1.10;;;;;;;3.34;69.71;99512.69;4987377;28;20057;-79
2021/11/25 04:46:41;;;;;;;1.88;0.90;;;;;;;3.37;69.64;99528.19;4990152;28;20043;-79
2021/11/25 04:49:07;;;;;;;1.45;1.00;;;;;;;3.33;69.66;99533.25;4986227;28;20057;-78
2021/11/25 04:51:34;;;;;;;3.35;1.35;;;;;;;3.20;69.77;99515.03;4985814;28;20132;-78
2021/11/25 04:53:59;;;;;;;1.48;0.82;;;;;;;3.44;70.36;99548.03;4981475;28;20073;-77
2021/11/25 04:56:25;;;;;;;2.95;1.27;;;;;;;3.37;69.82;99533.31;4969087;28;20411;-79
2021/11/25 04:58:51;;;;;;;2.28;0.82;;;;;;;3.44;69.41;99548.03;4965807;28;20145;-80
2021/11/25 05:01:17;;;;;;;1.38;0.90;;;;;;;3.39;69.99;99530.78;4985372;28;20061;-81
2021/11/25 05:03:43;;;;;;;3.30;1.10;;;;;;;3.41;69.43;99539.41;4965762;28;20038;-81
2021/11/25 05:06:09;;;;;;;1.70;1.10;;;;;;;3.45;69.17;99531.75;4969724;28;20056;-80
2021/11/25 05:08:35;;;;;;;1.00;0.90;;;;;;;3.70;69.80;99554.41;4983171;28;20110;-79
2021/11/25 05:11:01;;;;;;;2.55;1.67;;;;;;;3.72;68.87;99545.00;4981229;28;20053;-79
2021/11/25 05:13:26;;;;;;;3.30;1.42;;;;;;;3.75;68.92;99553.63;4988263;28;20046;-79
2021/11/25 05:15:52;;;;;;;2.08;1.10;;;;;;;3.55;69.44;99534.44;4981224;28;20049;-79
2021/11/25 05:18:21;;;;;;;2.67;1.20;;;;;;;3.64;68.74;99544.91;4982437;28;20403;-79
2021/11/25 05:20:53;;;;;;;2.28;1.40;;;;;;;3.65;68.71;99550.91;4965575;28;20077;-79
2021/11/25 05:23:29;;;;;;;7.90;2.10;;;;;;;3.82;68.80;99561.44;4965819;28;20043;-79
2021/11/25 05:25:55;;;;;;;7.32;2.90;;;;;;;3.86;68.70;99566.66;4964794;28;20038;-80
2021/11/25 05:28:21;;;;;;;5.53;2.60;;;;;;;3.89;68.27;99561.56;4969323;28;20050;-79
2021/11/25 05:30:51;;;;;;;7.50;2.88;;;;;;;3.99;68.56;99583.16;4989375;28;20066;-78
2021/11/25 05:33:17;;;;;;;4.97;2.38;;;;;;;4.01;68.50;99578.88;4986901;28;20070;-78
2021/11/25 05:35:50;;;;;;;3.70;2.38;;;;;;;3.78;67.77;99539.97;4967109;28;20030;-79
2021/11/25 05:38:28;;;;;;;5.03;2.20;;;;;;;3.90;68.53;99576.16;4969891;28;20061;-78
2021/11/25 05:40:54;;;;;;;5.30;2.40;;;;;;;3.91;68.65;99588.19;4985738;28;20552;-77
2021/11/25 05:43:23;;;;;;;3.13;2.38;;;;;;;3.82;68.49;99561.44;4981889;28;20059;-78
2021/11/25 05:45:54;;;;;;;4.57;2.72;;;;;;;3.87;67.80;99596.72;4993850;28;20059;-78
2021/11/25 05:48:24;;;;;;;;;;;;;;;3.74;68.48;99597.38;5007711;28;20062;-78
2021/11/25 05:50:51;;;;;;;5.68;2.72;;;;;;;3.66;68.42;99586.97;4987849;28;19917;-79
2021/11/25 05:53:20;;;;;;;11.43;3.47;;;;;;;3.60;68.79;99584.28;4950169;28;20049;-79
2021/11/25 05:55:51;;;;;;;5.28;3.05;;;;;;;3.65;68.77;99580.09;4983806;28;20046;-79
2021/11/25 05:58:20;;;;;;;8.02;3.17;;;;;;;3.36;69.08;99528.16;4968894;28;20043;-79
2021/11/25 06:00:49;;;;;;;7.15;3.72;;;;;;;3.60;69.04;99563.69;4987242;28;20054;-81
2021/11/25 06:03:24;;;;;;;12.65;4.75;;;;;;;3.85;69.11;99593.28;4965519;28;20045;-78
2021/11/25 06:05:53;;;;;;;6.97;4.40;;;;;;;3.98;69.47;99591.72;4946179;28;20046;-81
2021/11/25 06:08:19;;;;;;;12.40;5.50;;;;;;;3.42;69.10;99498.25;4982941;28;20189;-77
2021/11/25 06:10:48;;;;;;;10.75;4.88;;;;;;;3.86;68.99;99563.22;4984042;28;20061;-82
2021/11/25 06:13:13;;;;;;;10.77;5.00;;;;;;;4.13;68.97;99603.97;4972083;28;20399;-81
2021/11/25 06:15:43;;;;;;;9.40;4.32;;;;;;;3.96;68.49;99554.81;4989873;28;20042;-78
2021/11/25 06:18:09;;;;;;;6.20;3.75;;;;;;;4.17;69.08;99603.16;4981689;28;20102;-80
2021/11/25 06:20:50;;;;;;;7.07;3.60;;;;;;;3.71;68.51;99533.88;4999436;28;20376;-79
2021/11/25 06:23:22;;;;;;;10.23;3.45;;;;;;;4.10;68.44;99592.75;4990689;28;20038;-80
2021/11/25 06:25:48;;;;;;;5.88;3.20;;;;;;;3.85;68.21;99559.81;4991445;28;20125;-77
2021/11/25 06:28:14;;;;;;;5.28;3.22;;;;;;;4.03;69.09;99596.97;4977236;28;20076;-79
2021/11/25 06:30:45;;;;;;;5.05;3.30;;;;;;;3.99;68.85;99600.31;4976392;28;20048;-79
2021/11/25 06:33:18;;;;;;;5.40;3.47;;;;;;;3.64;69.06;99551.75;4977340;28;20054;-79
2021/11/25 06:35:50;;;;;;;10.48;3.80;;;;;;;3.25;68.58;99486.84;4995767;28;20042;-79
2021/11/25 06:38:19;;;;;;;8.53;4.40;;;;;;;2.85;68.79;99435.63;4969332;28;20043;-79
2021/11/25 06:40:49;;;;;;;9.88;5.03;;;;;;;3.85;69.28;99601.00;4987868;28;20322;-78
2021/11/25 06:43:15;;;;;;;10.57;3.97;;;;;;;3.71;69.00;99569.00;5010423;28;20053;-80
2021/11/25 06:45:42;;;;;;;8.70;4.28;;;;;;;3.87;69.43;99606.16;5014850;28;20041;-80
2021/11/25 06:48:09;;;;;;;10.27;4.07;;;;;;;3.88;69.47;99613.88;5012153;28;20402;-78
2021/11/25 06:50:39;;;;;;;18.15;8.05;;;;;;;3.74;69.35;99584.50;5038848;28;20049;-79
2021/11/25 06:53:11;;;;;;;9.35;4.47;;;;;;;3.82;69.18;99576.91;5023538;28;20105;-78
2021/11/25 06:55:51;;;;;;;7.32;4.45;;;;;;;2.77;69.00;99391.84;5037716;28;20179;-78
2021/11/25 06:58:49;;;;;;;8.75;4.30;;;;;;;4.21;69.56;99615.25;5009202;28;20767;-80
2021/11/25 07:01:24;;;;;;;8.20;4.38;;;;;;;3.03;68.45;99434.19;5023138;28;20113;-79
2021/11/25 07:04:02;;;;;;;8.13;4.13;;;;;;;4.21;68.80;99625.53;4994347;28;20418;-82
2021/11/25 07:06:44;;;;;;;8.00;4.10;;;;;;;3.97;68.82;99581.41;4984261;28;20052;-80
2021/11/25 07:09:28;;;;;;;14.57;4.80;;;;;;;3.78;68.36;99570.84;5006124;28;20049;-79
2021/11/25 07:11:56;;;;;;;7.05;3.90;;;;;;;3.36;68.63;99528.16;4987313;28;20046;-80
2021/11/25 07:14:22;;;;;;;6.40;3.50;;;;;;;3.92;69.44;99628.53;5001734;28;20038;-81
2021/11/25 07:16:48;;;;;;;7.63;4.05;;;;;;;3.64;69.13;99598.09;5022588;28;20136;-81
2021/11/25 07:19:14;;;;;;;11.85;5.63;;;;;;;3.69;69.49;99614.44;4987765;28;20034;-80
2021/11/25 07:21:40;;;;;;;13.77;6.38;;;;;;;3.63;69.51;99616.94;4993028;28;20042;-81
2021/11/25 07:24:23;;;;;;;15.43;6.90;;;;;;;3.65;69.60;99626.41;5012896;28;20040;-80
2021/11/25 07:26:49;;;;;;;;;;;;;;;3.72;69.90;99638.53;5008281;28;20061;-81
2021/11/25 07:29:15;;;;;;;12.48;5.45;;;;;;;3.74;69.87;99647.16;5023824;28;20254;-79
2021/11/25 07:31:56;;;;;;;12.65;6.75;;;;;;;3.63;69.80;99616.94;4987543;28;20037;-81
2021/11/25 07:34:34;;;;;;;13.93;5.88;;;;;;;3.78;69.85;99648.06;4992382;28;20046;-81
2021/11/25 07:37:00;;;;;;;14.07;5.78;;;;;;;3.25;69.84;99558.84;5019423;28;20043;-80
2021/11/25 07:39:30;;;;;;;12.30;6.57;;;;;;;3.36;70.21;99577.91;5022316;28;20136;-81
2021/11/25 07:42:40;;;;;;;11.75;6.38;;;;;;;3.42;70.22;99582.31;5000152;28;20047;-79
2021/11/25 07:45:08;;;;;;;9.80;5.28;;;;;;;3.99;70.21;99656.97;5026465;28;20088;-80
2021/11/25 07:47:34;;;;;;;7.75;4.38;;;;;;;3.82;69.29;99636.97;4976169;28;20044;-79
2021/11/25 07:50:05;;;;;;;13.95;5.65;;;;;;;3.73;69.94;99623.97;5023390;28;20050;-79
2021/11/25 07:52:31;;;;;;;13.30;5.60;;;;;;;3.92;69.72;99654.28;5012557;28;20033;-81
2021/11/25 07:54:57;;;;;;;12.80;6.07;;;;;;;4.00;69.88;99658.72;4989460;28;20115;-80
2021/11/25 07:57:26;;;;;;;13.80;6.03;;;;;;;3.96;70.00;99656.91;5009158;28;20623;-79
2021/11/25 07:59:52;;;;;;;12.85;5.50;;;;;;;4.03;70.09;99653.59;4993772;28;20053;-79
2021/11/25 08:02:36;;;;;;;8.48;4.72;;;;;;;4.17;69.50;99658.97;5005801;28;20072;-82
2021/11/25 08:05:13;;;;;;;8.80;4.13;;;;;;;3.90;69.85;99625.09;5005923;28;20037;-80
2021/11/25 08:07:41;;;;;;;7.97;4.28;;;;;;;3.35;69.88;99521.28;5032125;28;20037;-82
2021/11/25 08:10:10;;;;;;;11.18;4.22;;;;;;;4.19;69.57;99665.88;4991650;28;20497;-80
2021/11/25 08:12:36;;;;;;;7.13;3.33;;;;;;;4.01;69.98;99625.25;5034884;28;20072;-77
2021/11/25 08:15:03;;;;;;;8.35;4.22;;;;;;;4.00;69.52;99623.50;4984515;28;20042;-79
2021/11/25 08:17:29;;;;;;;8.68;3.72;;;;;;;4.14;69.48;99646.03;5002586;28;20038;-79
2021/11/25 08:19:58;;;;;;;7.53;4.15;;;;;;;4.23;69.59;99666.75;4984545;28;20037;-77
2021/11/25 08:22:27;;;;;;;11.77;6.93;;;;;;;4.24;70.03;99672.81;5032386;28;20127;-78
2021/11/25 08:24:53;;;;;;;8.95;4.88;;;;;;;4.31;70.37;99660.03;4988744;28;20145;-78
2021/11/25 08:27:22;;;;;;;6.22;3.50;;;;;;;4.30;69.88;99642.84;4987575;28;20395;-78
2021/11/25 08:29:48;;;;;;;4.25;3.20;;;;;;;4.39;69.78;99646.41;5017518;28;20069;-78
2021/11/25 08:32:15;;;;;;;4.50;2.90;;;;;;;4.50;70.17;99662.84;4989564;28;20041;-76
2021/11/25 08:34:41;;;;;;;5.45;2.42;;;;;;;4.32;69.80;99629.97;5000771;28;20502;-77
2021/11/25 08:37:07;;;;;;;3.83;2.72;;;;;;;4.45;69.45;99670.53;4991947;28;20037;-77
2021/11/25 08:39:36;;;;;;;3.95;2.70;;;;;;;4.23;69.71;99633.28;5000950;28;20054;-79
2021/11/25 08:42:07;;;;;;;4.55;2.72;;;;;;;4.07;69.75;99620.19;4984398;28;20489;-79
2021/11/25 08:44:34;;;;;;;4.03;2.80;;;;;;;4.14;69.81;99630.59;4983884;28;20073;-76
2021/11/25 08:47:00;;;;;;;4.00;2.63;;;;;;;4.28;70.22;99665.13;5000797;28;20050;-77
2021/11/25 08:49:26;;;;;;;4.72;2.83;;;;;;;4.13;69.97;99634.00;4974977;28;20037;-79
2021/11/25 08:51:53;;;;;;;7.22;3.35;;;;;;;4.17;70.48;99651.25;5020578;28;20049;-76
2021/11/25 08:54:18;;;;;;;6.93;3.05;;;;;;;4.14;70.38;99648.63;5003171;28;20037;-77
2021/11/25 08:56:45;;;;;;;8.07;3.40;;;;;;;4.14;69.78;99641.75;5002911;28;20053;-78
2021/11/25 08:59:10;;;;;;;5.60;3.05;;;;;;;4.11;69.92;99633.97;4988671;28;20083;-78
2021/11/25 09:01:36;;;;;;;7.45;4.10;;;;;;;4.35;70.09;99666.09;4988799;28;20145;-77
2021/11/25 09:04:02;;;;;;;7.05;3.30;;;;;;;4.35;70.31;99650.63;5001700;28;20058;-77
2021/11/25 09:06:28;;;;;;;8.30;3.53;;;;;;;4.06;69.91;99604.72;5027490;28;20037;-79
2021/11/25 09:08:54;;;;;;;8.00;3.90;;;;;;;4.42;69.72;99662.75;5003614;28;20517;-78
2021/11/25 09:11:20;;;;;;;5.13;3.10;;;;;;;4.45;70.51;99657.66;4967085;28;20045;-76
2021/11/25 09:13:46;;;;;;;4.68;3.15;;;;;;;4.37;69.59;99649.81;5026755;28;20097;-76
2021/11/25 09:16:13;;;;;;;4.88;3.05;;;;;;;4.19;70.12;99626.38;5002794;28;20057;-77
2021/11/25 09:18:39;;;;;;;7.00;3.30;;;;;;;4.22;69.48;99629.84;5004046;28;20041;-78
2021/11/25 09:21:05;;;;;;;4.78;3.22;;;;;;;4.31;69.89;99641.13;5022889;28;20060;-78
2021/11/25 09:23:31;;;;;;;11.00;3.03;;;;;;;4.35;70.56;99663.50;5022519;28;20510;-79
2021/11/25 09:25:57;;;;;;;6.72;3.22;;;;;;;4.36;70.18;99667.81;5022907;28;20045;-77
2021/11/25 09:28:25;;;;;;;5.55;3.28;;;;;;;4.36;70.43;99654.94;5006361;28;20052;-78
2021/11/25 09:30:52;;;;;;;6.20;3.40;;;;;;;4.44;70.41;99645.59;5027140;28;20054;-78
2021/11/25 09:33:20;;;;;;;5.18;3.42;;;;;;;4.47;70.70;99657.66;5011419;28;20038;-76
2021/11/25 09:35:48;;;;;;;5.60;2.97;;;;;;;4.46;70.45;99658.50;5013968;28;20145;-77
2021/11/25 09:38:16;;;;;;;6.78;3.58;;;;;;;4.45;69.49;99654.19;5014171;28;20036;-79
2021/11/25 09:40:43;;;;;;;5.38;3.20;;;;;;;4.49;69.48;99658.53;4978573;28;20140;-78
2021/11/25 09:43:14;;;;;;;9.00;3.70;;;;;;;4.49;69.88;99649.13;5027646;28;20077;-77
2021/11/25 09:45:41;;;;;;;5.25;3.83;;;;;;;4.57;70.60;99653.50;4991494;28;21244;-80
2021/11/25 09:48:11;;;;;;;6.22;3.78;;;;;;;4.52;70.59;99630.25;5013574;28;20038;-76
2021/11/25 09:50:40;;;;;;;5.32;3.60;;;;;;;4.53;70.16;99635.41;5020010;28;20038;-78
2021/11/25 09:53:08;;;;;;;8.18;3.90;;;;;;;4.47;69.81;99635.34;5013305;28;20038;-78
2021/11/25 09:55:37;;;;;;;5.00;3.30;;;;;;;4.37;69.64;99620.59;5014502;28;20042;-78
2021/11/25 09:58:04;;;;;;;5.88;3.70;;;;;;;4.56;69.69;99644.91;5029559;28;20054;-77
2021/11/25 10:00:32;;;;;;;6.38;4.10;;;;;;;4.48;69.74;99623.31;5012679;28;20109;-78
2021/11/25 10:03:01;;;;;;;7.03;3.80;;;;;;;4.72;70.48;99651.13;5013144;28;20052;-79
2021/11/25 10:05:27;;;;;;;7.35;3.95;;;;;;;4.66;70.22;99657.06;4990837;28;20124;-79
2021/11/25 10:07:54;;;;;;;5.65;3.45;;;;;;;4.42;70.51;99615.50;4985734;28;20078;-77
2021/11/25 10:10:28;;;;;;;8.90;3.80;;;;;;;4.52;69.99;99636.25;4987211;28;20042;-79
2021/11/25 10:13:16;;;;;;;6.22;3.38;;;;;;;4.56;70.40;99644.91;5001464;28;20046;-76
2021/11/25 10:15:42;;;;;;;8.43;3.97;;;;;;;4.42;70.39;99620.66;5002789;28;20149;-81
2021/11/25 10:18:14;;;;;;;6.25;3.40;;;;;;;4.48;69.77;99636.19;5004857;28;20042;-76
2021/11/25 10:20:42;;;;;;;;;;;;;;;4.64;70.56;99650.16;5022961;28;20926;-82
2021/11/25 10:23:14;;;;;;;10.18;3.90;;;;;;;4.66;69.88;99645.88;5006050;28;20021;-77
2021/11/25 10:25:50;;;;;;;5.68;3.40;;;;;;;4.34;70.09;99587.06;5018553;28;20081;-78
2021/11/25 10:28:35;;;;;;;5.18;3.45;;;;;;;4.56;70.16;99634.59;5008648;28;20203;-78
2021/11/25 10:31:10;;;;;;;6.63;3.80;;;;;;;4.60;70.09;99641.53;5006733;28;20144;-80
2021/11/25 10:36:33;;;;;;;5.95;3.85;;;;;;;4.44;69.67;99599.22;5005954;28;20046;-79
2021/11/25 10:41:57;;;;;;;5.53;3.90;;;;;;;4.60;70.16;99626.06;5013709;28;20507;-78
2021/11/25 10:44:35;;;;;;;6.97;3.90;;;;;;;4.46;70.00;99600.13;5001991;28;20046;-77
2021/11/25 10:47:07;;;;;;;7.72;3.40;;;;;;;4.63;70.26;99625.22;5011141;28;20180;-79
2021/11/25 10:49:57;;;;;;;6.07;3.72;;;;;;;4.71;70.29;99627.91;5013603;28;20049;-79
2021/11/25 10:52:37;;;;;;;6.15;3.13;;;;;;;4.60;70.31;99604.56;5009051;28;20058;-78
2021/11/25 10:55:15;;;;;;;4.70;3.20;;;;;;;4.64;70.54;99622.66;4972334;28;20049;-78
2021/11/25 10:57:47;;;;;;;5.93;3.20;;;;;;;4.58;70.67;99616.56;4985729;28;20047;-80
2021/11/25 11:00:23;;;;;;;5.60;3.10;;;;;;;4.29;70.16;99568.13;5021196;28;20042;-79
2021/11/25 11:03:11;;;;;;;5.90;3.47;;;;;;;4.58;70.56;99616.56;5004787;28;20026;-81
2021/11/25 11:05:57;;;;;;;6.75;3.53;;;;;;;4.60;70.27;99622.59;4979861;28;20041;-81
2021/11/25 11:08:26;;;;;;;5.43;2.85;;;;;;;4.46;70.45;99592.38;4987248;28;20042;-77
2021/11/25 11:11:02;;;;;;;4.78;3.10;;;;;;;4.55;70.40;99596.78;5002713;28;20092;-81
2021/11/25 11:14:11;;;;;;;9.07;3.53;;;;;;;4.56;70.34;99608.81;4999452;28;20057;-80
2021/11/25 11:18:57;;;;;;;4.55;3.00;;;;;;;4.61;70.66;99616.59;4999466;28;20042;-79
2021/11/25 11:21:28;;;;;;;4.80;3.60;;;;;;;4.64;70.39;99616.66;5003540;28;20200;-79
2021/11/25 11:24:00;;;;;;;6.95;3.05;;;;;;;4.65;70.46;99620.97;5004278;28;20120;-80
2021/11/25 11:26:26;;;;;;;;;;;;;;;4.70;71.02;99618.44;5034622;28;20399;-76
2021/11/25 11:28:52;;;;;;;5.10;3.30;;;;;;;4.68;69.96;99629.59;4999360;28;20064;-80
2021/11/25 11:31:19;;;;;;;3.88;2.65;;;;;;;4.56;69.80;99607.94;4981286;28;20037;-80
2021/11/25 11:33:49;;;;;;;3.53;2.72;;;;;;;4.64;69.44;99619.22;5008315;28;20109;-80
2021/11/25 11:36:15;;;;;;;7.50;2.80;;;;;;;4.52;70.54;99605.31;5031684;28;20046;-80
2021/11/25 11:38:42;;;;;;;5.60;3.20;;;;;;;4.55;69.98;99604.53;4972204;28;20037;-78
2021/11/25 11:41:09;;;;;;;5.97;3.00;;;;;;;4.46;69.70;99594.97;5018722;28;20526;-80
2021/11/25 11:43:36;;;;;;;5.63;2.92;;;;;;;4.36;70.74;99581.09;4977622;28;20042;-79
2021/11/25 11:46:02;;;;;;;5.38;3.05;;;;;;;4.55;70.11;99604.53;4987552;28;20147;-77
2021/11/25 11:48:31;;;;;;;5.85;3.45;;;;;;;4.50;69.80;99603.59;4970583;28;20058;-80
2021/11/25 11:50:58;;;;;;;4.03;3.03;;;;;;;4.67;70.67;99625.28;4983638;28;20053;-78
2021/11/25 11:53:38;;;;;;;7.13;3.78;;;;;;;4.69;70.56;99627.88;4967809;28;20039;-79
2021/11/25 11:56:04;;;;;;;6.80;4.13;;;;;;;4.75;69.89;99620.22;4982991;28;20043;-79
2021/11/25 11:58:41;;;;;;;4.18;3.00;;;;;;;4.68;70.36;99623.59;4986694;28;20049;-79
2021/11/25 12:01:16;;;;;;;6.03;3.10;;;;;;;4.62;69.45;99626.97;4986603;28;20046;-80
2021/11/25 12:03:55;;;;;;;5.28;2.97;;;;;;;4.60;69.92;99628.66;4987041;28;20030;-76